createdAt,value
2023-04-29T00:04:44.389Z,19.70
2023-04-29T00:09:47.320Z,19.80
2023-04-29T00:14:51.556Z,19.70
2023-04-29T00:19:54.879Z,19.70
2023-04-29T00:24:57.915Z,19.80
2023-04-29T00:30:02.158Z,19.80
2023-04-29T00:35:05.352Z,19.70
2023-04-29T00:40:09.860Z,19.70
2023-04-29T00:45:14.341Z,19.70
2023-04-29T00:50:17.379Z,19.70
2023-04-29T00:55:21.078Z,19.70
2023-04-29T01:00:26.291Z,19.70
2023-04-29T01:05:29.240Z,19.70
2023-04-29T01:10:36.956Z,19.70
2023-04-29T01:15:51.036Z,19.70
2023-04-29T01:20:54.273Z,19.70
2023-04-29T01:25:59.385Z,19.70
2023-04-29T01:31:08.953Z,19.70
2023-04-29T01:36:22.381Z,19.70
2023-04-29T01:41:36.013Z,19.60
2023-04-29T01:46:39.846Z,19.70
2023-04-29T01:51:42.756Z,19.70
2023-04-29T01:56:47.097Z,19.70
2023-04-29T02:01:49.956Z,19.70
2023-04-29T02:06:53.344Z,19.70
2023-04-29T02:11:57.580Z,19.70
2023-04-29T02:17:00.495Z,19.70
2023-04-29T02:22:03.366Z,19.70
2023-04-29T02:27:07.589Z,19.60
2023-04-29T02:32:10.719Z,19.60
2023-04-29T02:37:13.739Z,19.60
2023-04-29T02:42:18.015Z,19.60
2023-04-29T02:47:20.903Z,19.60
2023-04-29T02:52:23.807Z,19.60
2023-04-29T02:57:29.556Z,19.60
2023-04-29T03:02:32.554Z,19.70
2023-04-29T03:07:35.525Z,19.60
2023-04-29T03:12:40.431Z,19.60
2023-04-29T03:17:44.682Z,19.60
2023-04-29T03:22:47.586Z,19.60
2023-04-29T03:27:51.770Z,19.60
2023-04-29T03:32:54.650Z,19.60
2023-04-29T03:37:57.543Z,19.60
2023-04-29T03:43:01.837Z,19.60
2023-04-29T03:48:05.073Z,19.60
2023-04-29T03:53:08.462Z,19.60
2023-04-29T03:58:12.681Z,19.60
2023-04-29T04:03:16.012Z,19.60
2023-04-29T04:08:18.961Z,19.60
2023-04-29T04:13:23.355Z,19.60
2023-04-29T04:18:26.280Z,19.60
2023-04-29T04:23:29.148Z,19.60
2023-04-29T04:28:33.437Z,19.60
2023-04-29T04:33:36.360Z,19.60
2023-04-29T04:38:39.265Z,19.60
2023-04-29T04:43:43.493Z,19.60
2023-04-29T04:48:46.456Z,19.60
2023-04-29T04:53:49.350Z,19.60
2023-04-29T04:58:53.595Z,19.60
2023-04-29T05:03:57.447Z,19.60
2023-04-29T05:09:00.386Z,19.60
2023-04-29T05:14:05.034Z,19.60
2023-04-29T05:19:09.629Z,19.60
2023-04-29T05:24:12.582Z,19.60
2023-04-29T05:29:16.816Z,19.70
2023-04-29T05:34:19.714Z,19.80
2023-04-29T05:39:22.906Z,19.80
2023-04-29T05:44:27.235Z,19.80
2023-04-29T05:49:30.334Z,19.90
2023-04-29T05:54:33.533Z,19.80
2023-04-29T05:59:37.766Z,19.90
2023-04-29T06:04:41.592Z,19.80
2023-04-29T06:09:44.963Z,19.80
2023-04-29T06:14:49.159Z,19.90
2023-04-29T06:19:52.368Z,20.00
2023-04-29T06:24:55.449Z,20.20
2023-04-29T06:29:59.684Z,20.20
2023-04-29T06:35:03.027Z,20.20
2023-04-29T06:40:06.944Z,20.20
2023-04-29T06:45:12.115Z,20.30
2023-04-29T06:50:14.980Z,20.30
2023-04-29T06:55:17.950Z,20.40
2023-04-29T07:00:22.878Z,20.50
2023-04-29T07:05:26.162Z,20.70
2023-04-29T07:10:29.563Z,20.80
2023-04-29T07:15:36.285Z,20.90
2023-04-29T07:20:39.141Z,21.00
2023-04-29T07:25:42.064Z,21.10
2023-04-29T07:30:46.311Z,21.20
2023-04-29T07:35:49.578Z,21.20
2023-04-29T07:40:52.576Z,21.30
2023-04-29T07:45:56.871Z,21.30
2023-04-29T07:51:00.237Z,21.30
2023-04-29T07:56:07.434Z,21.40
2023-04-29T08:01:12.461Z,21.40
2023-04-29T08:06:15.616Z,21.40
2023-04-29T08:11:18.705Z,21.40
2023-04-29T08:16:25.214Z,21.50
2023-04-29T08:21:28.653Z,21.40
2023-04-29T08:26:31.504Z,21.40
2023-04-29T08:31:36.249Z,21.40
2023-04-29T08:36:39.609Z,21.40
2023-04-29T08:41:44.167Z,21.40
2023-04-29T08:46:49.258Z,21.40
2023-04-29T08:51:52.500Z,21.40
2023-04-29T08:56:58.065Z,21.40
2023-04-29T09:02:02.388Z,21.40
2023-04-29T09:07:05.934Z,21.50
2023-04-29T09:12:09.166Z,21.50
2023-04-29T09:17:13.405Z,21.50
2023-04-29T09:22:16.282Z,21.50
2023-04-29T09:27:28.983Z,21.50
2023-04-29T09:32:33.286Z,21.50
2023-04-29T09:37:37.062Z,21.50
2023-04-29T09:42:44.289Z,21.50
2023-04-29T09:48:03.747Z,21.50
2023-04-29T09:53:08.832Z,21.50
2023-04-29T09:58:30.168Z,21.50
2023-04-29T10:03:36.219Z,21.50
2023-04-29T10:08:41.424Z,21.50
2023-04-29T10:13:45.332Z,21.50
2023-04-29T10:18:57.633Z,21.50
2023-04-29T10:24:02.970Z,21.50
2023-04-29T10:29:08.566Z,21.50
2023-04-29T10:34:13.976Z,21.50
2023-04-29T10:39:25.121Z,21.50
2023-04-29T10:44:28.000Z,21.60
2023-04-29T10:49:36.499Z,21.60
2023-04-29T10:54:41.004Z,21.60
2023-04-29T10:59:47.812Z,21.60
2023-04-29T11:05:12.360Z,21.60
2023-04-29T11:10:15.565Z,21.60
2023-04-29T11:15:19.630Z,21.60
2023-04-29T11:20:24.172Z,21.60
2023-04-29T11:25:28.421Z,21.60
2023-04-29T11:30:32.510Z,21.60
2023-04-29T11:35:40.760Z,21.60
2023-04-29T11:40:44.069Z,21.60
2023-04-29T11:45:47.367Z,21.60
2023-04-29T11:50:53.355Z,21.60
2023-04-29T11:55:57.132Z,21.60
2023-04-29T12:01:00.168Z,21.70
2023-04-29T12:06:05.641Z,21.60
2023-04-29T12:11:09.685Z,21.60
2023-04-29T12:16:12.771Z,21.60
2023-04-29T12:21:17.077Z,21.70
2023-04-29T12:26:20.857Z,21.70
2023-04-29T12:31:24.287Z,21.70
2023-04-29T12:36:30.137Z,21.70
2023-04-29T12:41:40.470Z,21.70
2023-04-29T12:46:43.523Z,21.70
2023-04-29T12:51:47.994Z,21.70
2023-04-29T12:56:51.317Z,21.70
2023-04-29T13:01:54.251Z,21.60
2023-04-29T13:07:00.486Z,21.60
2023-04-29T13:12:03.730Z,21.60
2023-04-29T13:17:06.753Z,21.60
2023-04-29T13:22:11.248Z,21.60
2023-04-29T13:27:14.122Z,21.60
2023-04-29T13:32:18.545Z,21.60
2023-04-29T13:37:23.247Z,21.60
2023-04-29T13:42:27.290Z,21.50
2023-04-29T13:47:31.497Z,21.50
2023-04-29T14:08:02.620Z,21.50
2023-04-29T14:13:05.557Z,21.50
2023-04-29T14:18:09.544Z,21.60
2023-04-29T14:23:13.786Z,21.50
2023-04-29T14:28:16.718Z,21.50
2023-04-29T14:33:19.667Z,21.60
2023-04-29T14:38:25.324Z,21.60
2023-04-29T14:43:28.941Z,21.50
2023-04-29T14:48:32.162Z,21.50
2023-04-29T14:53:36.546Z,21.50
2023-04-29T14:58:39.462Z,21.50
2023-04-29T15:03:44.836Z,21.50
2023-04-29T15:08:49.462Z,21.50
2023-04-29T15:13:52.376Z,21.50
2023-04-29T15:18:55.266Z,21.60
2023-04-29T15:23:59.470Z,21.50
2023-04-29T15:29:03.411Z,21.50
2023-04-29T15:34:06.616Z,21.40
2023-04-29T15:39:12.243Z,21.50
2023-04-29T15:44:15.197Z,21.50
2023-04-29T15:49:18.074Z,21.50
2023-04-29T15:54:23.137Z,21.50
2023-04-29T15:59:26.084Z,21.50
2023-04-29T16:04:29.413Z,21.40
2023-04-29T16:09:33.822Z,21.40
2023-04-29T16:14:36.654Z,21.50
2023-04-29T16:19:40.242Z,21.50
2023-04-29T16:24:45.474Z,21.40
2023-04-29T16:29:49.895Z,21.40
2023-04-29T16:34:52.887Z,21.40
2023-04-29T16:39:57.307Z,21.40
2023-04-29T16:45:00.186Z,21.40
2023-04-29T16:50:03.437Z,21.40
2023-04-29T16:55:08.648Z,21.40
2023-04-29T17:00:12.213Z,21.40
2023-04-29T17:05:15.223Z,21.30
2023-04-29T17:10:19.651Z,21.40
2023-04-29T17:15:22.541Z,21.30
2023-04-29T17:20:25.722Z,21.30
2023-04-29T17:25:30.293Z,21.30
2023-04-29T17:30:34.558Z,21.30
2023-04-29T17:35:37.418Z,21.30
2023-04-29T17:40:41.834Z,21.20
2023-04-29T17:45:44.808Z,21.20
2023-04-29T17:50:47.832Z,21.20
2023-04-29T17:55:52.050Z,21.20
2023-04-29T18:00:56.051Z,21.20
2023-04-29T18:05:59.186Z,21.10
2023-04-29T18:11:03.521Z,21.10
2023-04-29T18:16:07.246Z,21.10
2023-04-29T18:21:10.260Z,21.10
2023-04-29T18:26:14.509Z,21.00
2023-04-29T18:31:18.111Z,21.00
2023-04-29T18:36:21.593Z,21.00
2023-04-29T18:41:26.135Z,21.00
2023-04-29T18:46:30.478Z,21.00
2023-04-29T18:51:33.520Z,21.00
2023-04-29T18:56:40.112Z,21.00
2023-04-29T19:01:43.944Z,20.90
2023-04-29T19:06:46.988Z,20.90
2023-04-29T19:11:51.288Z,20.90
2023-04-29T19:16:54.884Z,20.90
2023-04-29T19:21:58.109Z,20.80
2023-04-29T19:27:02.328Z,20.80
2023-04-29T19:32:05.280Z,20.80
2023-04-29T19:37:08.977Z,20.80
2023-04-29T19:42:13.200Z,20.80
2023-04-29T19:47:16.187Z,20.80
2023-04-29T19:52:19.080Z,20.80
2023-04-29T19:57:23.354Z,20.80
2023-04-29T20:02:26.476Z,20.80
2023-04-29T20:07:29.399Z,20.80
2023-04-29T20:12:35.368Z,20.80
2023-04-29T20:17:39.237Z,20.80
2023-04-29T20:22:42.156Z,20.70
2023-04-29T20:27:46.367Z,20.80
2023-04-29T20:32:49.559Z,20.80
2023-04-29T20:37:52.465Z,20.70
2023-04-29T20:42:56.686Z,20.70
2023-04-29T20:47:59.684Z,20.70
2023-04-29T20:53:02.575Z,20.70
2023-04-29T20:58:06.800Z,20.70
2023-04-29T21:03:09.700Z,20.70
2023-04-29T21:08:12.579Z,20.70
2023-04-29T21:13:17.724Z,20.70
2023-04-29T21:18:20.665Z,20.70
2023-04-29T21:23:23.741Z,20.60
2023-04-29T21:28:28.117Z,20.50
2023-04-29T21:33:30.992Z,20.60
2023-04-29T21:38:33.857Z,20.50
2023-04-29T21:43:38.330Z,20.60
2023-04-29T21:48:41.244Z,20.50
2023-04-29T21:53:44.141Z,20.50
2023-04-29T21:58:48.546Z,20.50
2023-04-29T22:03:51.666Z,20.60
2023-04-29T22:08:54.604Z,20.60
2023-04-29T22:13:58.827Z,20.60
2023-04-29T22:19:01.870Z,20.50
2023-04-29T22:24:05.156Z,20.60
2023-04-29T22:29:09.372Z,20.60
2023-04-29T22:34:12.241Z,20.60
2023-04-29T22:39:15.078Z,20.60
2023-04-29T22:44:19.362Z,20.60
2023-04-29T22:49:22.210Z,20.60
2023-04-29T22:54:25.171Z,20.50
2023-04-29T22:59:29.404Z,20.60
2023-04-29T23:04:33.391Z,20.60
2023-04-29T23:09:36.306Z,20.60
2023-04-29T23:14:40.551Z,20.60
2023-04-29T23:19:43.462Z,20.50
2023-04-29T23:24:46.318Z,20.60
2023-04-29T23:29:51.101Z,20.50
2023-04-29T23:34:53.999Z,20.50
2023-04-29T23:39:57.373Z,20.50
2023-04-29T23:45:01.876Z,20.50
2023-04-29T23:50:05.102Z,20.60
2023-04-29T23:55:09.420Z,20.50
